sensor_id;sensor_type;location;lat;lon;timestamp;pressure;altitude;pressure_sealevel;temperature;humidity
23953;BME280;12163;49.316;6.092;2023-05-01T00:01:30;99379.78;;;12.82;65.47
23953;BME280;12163;49.316;6.092;2023-05-01T00:03:57;99374.88;;;12.84;66.07
23953;BME280;12163;49.316;6.092;2023-05-01T00:06:24;99375.38;;;12.86;65.99
23953;BME280;12163;49.316;6.092;2023-05-01T00:08:51;99361.53;;;12.88;65.69
23953;BME280;12163;49.316;6.092;2023-05-01T00:11:18;99366.66;;;12.89;65.42
23953;BME280;12163;49.316;6.092;2023-05-01T00:13:44;99363.38;;;12.92;65.30
23953;BME280;12163;49.316;6.092;2023-05-01T00:16:11;99364.97;;;12.93;65.39
23953;BME280;12163;49.316;6.092;2023-05-01T00:18:38;99361.16;;;12.94;65.38
23953;BME280;12163;49.316;6.092;2023-05-01T00:21:05;99352.53;;;12.92;65.63
23953;BME280;12163;49.316;6.092;2023-05-01T00:23:32;99354.94;;;12.94;66.10
23953;BME280;12163;49.316;6.092;2023-05-01T00:25:58;99345.69;;;12.95;66.05
23953;BME280;12163;49.316;6.092;2023-05-01T00:28:25;99344.91;;;12.94;65.83
23953;BME280;12163;49.316;6.092;2023-05-01T00:30:52;99346.00;;;12.93;65.72
23953;BME280;12163;49.316;6.092;2023-05-01T00:33:18;99346.00;;;12.93;66.58
23953;BME280;12163;49.316;6.092;2023-05-01T00:35:45;99334.84;;;12.95;66.62
23953;BME280;12163;49.316;6.092;2023-05-01T00:38:12;99341.09;;;12.95;66.01
23953;BME280;12163;49.316;6.092;2023-05-01T00:40:42;99341.09;;;12.95;65.96
23953;BME280;12163;49.316;6.092;2023-05-01T00:43:10;99334.84;;;12.95;66.09
23953;BME280;12163;49.316;6.092;2023-05-01T00:45:39;99333.25;;;12.94;66.44
23953;BME280;12163;49.316;6.092;2023-05-01T00:48:08;99332.47;;;12.93;66.58
23953;BME280;12163;49.316;6.092;2023-05-01T00:50:35;99328.94;;;12.93;66.77
23953;BME280;12163;49.316;6.092;2023-05-01T00:53:01;99334.06;;;12.94;66.11
23953;BME280;12163;49.316;6.092;2023-05-01T00:55:30;99323.53;;;12.93;66.76
23953;BME280;12163;49.316;6.092;2023-05-01T00:57:57;99324.84;;;12.95;66.91
23953;BME280;12163;49.316;6.092;2023-05-01T01:00:24;99317.22;;;12.97;67.47
23953;BME280;12163;49.316;6.092;2023-05-01T01:02:51;99322.63;;;12.97;67.54
23953;BME280;12163;49.316;6.092;2023-05-01T01:05:20;99316.09;;;12.98;66.95
23953;BME280;12163;49.316;6.092;2023-05-01T01:10:42;99303.19;;;12.95;67.54
23953;BME280;12163;49.316;6.092;2023-05-01T01:13:20;99310.69;;;12.98;67.89
23953;BME280;12163;49.316;6.092;2023-05-01T01:16:05;99302.56;;;12.98;67.23
23953;BME280;12163;49.316;6.092;2023-05-01T01:18:42;99298.75;;;12.99;67.92
23953;BME280;12163;49.316;6.092;2023-05-01T01:21:31;99297.16;;;12.98;67.48
23953;BME280;12163;49.316;6.092;2023-05-01T01:27:12;99293.94;;;12.96;68.15
23953;BME280;12163;49.316;6.092;2023-05-01T01:32:55;99292.00;;;12.97;67.56
23953;BME280;12163;49.316;6.092;2023-05-01T01:35:27;99296.53;;;13.01;68.54
23953;BME280;12163;49.316;6.092;2023-05-01T01:38:01;99288.88;;;13.03;68.44
23953;BME280;12163;49.316;6.092;2023-05-01T01:40:43;99290.19;;;13.06;68.34
23953;BME280;12163;49.316;6.092;2023-05-01T01:43:16;99282.84;;;13.06;67.74
23953;BME280;12163;49.316;6.092;2023-05-01T01:45:58;99285.06;;;13.04;66.78
23953;BME280;12163;49.316;6.092;2023-05-01T01:48:30;99278.53;;;13.05;67.17
23953;BME280;12163;49.316;6.092;2023-05-01T01:50:58;99287.50;;;13.06;67.05
23953;BME280;12163;49.316;6.092;2023-05-01T01:53:28;99282.06;;;13.06;67.33
23953;BME280;12163;49.316;6.092;2023-05-01T01:55:57;99280.97;;;13.07;67.91
23953;BME280;12163;49.316;6.092;2023-05-01T01:58:28;99277.44;;;13.06;67.77
23953;BME280;12163;49.316;6.092;2023-05-01T02:00:56;99277.94;;;13.08;67.56
23953;BME280;12163;49.316;6.092;2023-05-01T02:03:24;99278.44;;;13.10;67.95
23953;BME280;12163;49.316;6.092;2023-05-01T02:05:53;99283.88;;;13.10;67.59
23953;BME280;12163;49.316;6.092;2023-05-01T02:08:23;99274.63;;;13.11;67.90
23953;BME280;12163;49.316;6.092;2023-05-01T02:10:51;99269.22;;;13.11;67.53
23953;BME280;12163;49.316;6.092;2023-05-01T02:13:28;99274.63;;;13.11;67.86
23953;BME280;12163;49.316;6.092;2023-05-01T02:15:57;99271.41;;;13.09;68.38
23953;BME280;12163;49.316;6.092;2023-05-01T02:18:27;99271.41;;;13.09;68.11
23953;BME280;12163;49.316;6.092;2023-05-01T02:20:56;99264.38;;;13.08;68.70
23953;BME280;12163;49.316;6.092;2023-05-01T02:23:26;99267.63;;;13.10;68.29
23953;BME280;12163;49.316;6.092;2023-05-01T02:25:56;99273.81;;;13.11;68.46
23953;BME280;12163;49.316;6.092;2023-05-01T02:28:25;99265.50;;;13.07;67.92
23953;BME280;12163;49.316;6.092;2023-05-01T02:30:54;99260.88;;;13.08;68.53
23953;BME280;12163;49.316;6.092;2023-05-01T02:33:22;99257.38;;;13.07;68.27
23953;BME280;12163;49.316;6.092;2023-05-01T02:35:49;99256.59;;;13.07;67.98
23953;BME280;12163;49.316;6.092;2023-05-01T02:38:16;99251.47;;;13.05;68.00
23953;BME280;12163;49.316;6.092;2023-05-01T02:40:45;99256.59;;;13.07;67.16
23953;BME280;12163;49.316;6.092;2023-05-01T02:43:15;99247.34;;;13.08;67.30
23953;BME280;12163;49.316;6.092;2023-05-01T02:45:43;99249.13;;;13.12;66.86
23953;BME280;12163;49.316;6.092;2023-05-01T02:48:14;99248.31;;;13.12;67.09
23953;BME280;12163;49.316;6.092;2023-05-01T02:50:43;99250.41;;;13.15;67.06
23953;BME280;12163;49.316;6.092;2023-05-01T02:53:11;99246.28;;;13.17;66.79
23953;BME280;12163;49.316;6.092;2023-05-01T02:55:38;99244.69;;;13.16;66.85
23953;BME280;12163;49.316;6.092;2023-05-01T02:58:05;99238.16;;;13.17;67.01
23953;BME280;12163;49.316;6.092;2023-05-01T03:00:32;99238.66;;;13.19;66.76
23953;BME280;12163;49.316;6.092;2023-05-01T03:05:44;99235.31;;;13.22;66.44
23953;BME280;12163;49.316;6.092;2023-05-01T03:08:11;99238.84;;;13.23;65.73
23953;BME280;12163;49.316;6.092;2023-05-01T03:10:40;99235.03;;;13.24;65.70
23953;BME280;12163;49.316;6.092;2023-05-01T03:13:08;99233.91;;;13.25;66.17
23953;BME280;12163;49.316;6.092;2023-05-01T03:15:38;99227.38;;;13.26;66.19
23953;BME280;12163;49.316;6.092;2023-05-01T03:18:05;99226.56;;;13.25;65.79
23953;BME280;12163;49.316;6.092;2023-05-01T03:20:32;99230.41;;;13.24;65.61
23953;BME280;12163;49.316;6.092;2023-05-01T03:22:59;99230.88;;;13.26;65.96
23953;BME280;12163;49.316;6.092;2023-05-01T03:25:26;99228.16;;;13.26;65.41
23953;BME280;12163;49.316;6.092;2023-05-01T03:27:53;99212.72;;;13.27;65.32
23953;BME280;12163;49.316;6.092;2023-05-01T03:30:20;99220.53;;;13.28;65.28
23953;BME280;12163;49.316;6.092;2023-05-01T03:32:47;99218.16;;;13.27;65.29
23953;BME280;12163;49.316;6.092;2023-05-01T03:35:14;99225.47;;;13.26;65.64
23953;BME280;12163;49.316;6.092;2023-05-01T03:37:40;99221.16;;;13.25;65.27
23953;BME280;12163;49.316;6.092;2023-05-01T03:40:07;99217.34;;;13.26;65.16
23953;BME280;12163;49.316;6.092;2023-05-01T03:42:34;99219.75;;;13.28;66.34
23953;BME280;12163;49.316;6.092;2023-05-01T03:45:01;99217.81;;;13.28;66.08
23953;BME280;12163;49.316;6.092;2023-05-01T03:47:27;99216.22;;;13.27;66.04
23953;BME280;12163;49.316;6.092;2023-05-01T03:49:55;99221.97;;;13.26;65.38
23953;BME280;12163;49.316;6.092;2023-05-01T03:52:22;99221.16;;;13.25;66.30
23953;BME280;12163;49.316;6.092;2023-05-01T03:54:48;99222.75;;;13.26;65.61
23953;BME280;12163;49.316;6.092;2023-05-01T03:57:15;99227.38;;;13.26;65.83
23953;BME280;12163;49.316;6.092;2023-05-01T03:59:41;99219.06;;;13.22;66.38
23953;BME280;12163;49.316;6.092;2023-05-01T04:02:09;99221.91;;;13.17;66.22
23953;BME280;12163;49.316;6.092;2023-05-01T04:04:36;99230.97;;;13.13;65.91
23953;BME280;12163;49.316;6.092;2023-05-01T04:07:03;99225.88;;;13.11;66.64
23953;BME280;12163;49.316;6.092;2023-05-01T04:09:30;99228.06;;;13.09;66.89
23953;BME280;12163;49.316;6.092;2023-05-01T04:11:56;99231.88;;;13.08;66.56
23953;BME280;12163;49.316;6.092;2023-05-01T04:14:23;99232.69;;;13.09;66.85
23953;BME280;12163;49.316;6.092;2023-05-01T04:16:50;99231.56;;;13.10;66.46
23953;BME280;12163;49.316;6.092;2023-05-01T04:19:16;99224.56;;;13.09;66.40
23953;BME280;12163;49.316;6.092;2023-05-01T04:21:43;99224.06;;;13.07;66.58
23953;BME280;12163;49.316;6.092;2023-05-01T04:24:09;99227.69;;;13.02;67.18
23953;BME280;12163;49.316;6.092;2023-05-01T04:26:36;99227.69;;;13.02;67.40
23953;BME280;12163;49.316;6.092;2023-05-01T04:29:04;99233.13;;;13.02;66.48
23953;BME280;12163;49.316;6.092;2023-05-01T04:31:30;99234.56;;;13.00;67.00
23953;BME280;12163;49.316;6.092;2023-05-01T04:33:57;99235.13;;;12.97;66.82
23953;BME280;12163;49.316;6.092;2023-05-01T04:36:24;99235.97;;;12.97;67.57
23953;BME280;12163;49.316;6.092;2023-05-01T04:38:50;99233.75;;;12.99;66.33
23953;BME280;12163;49.316;6.092;2023-05-01T04:41:17;99229.28;;;13.03;66.19
23953;BME280;12163;49.316;6.092;2023-05-01T04:43:44;99237.81;;;13.10;66.63
23953;BME280;12163;49.316;6.092;2023-05-01T04:46:11;99230.66;;;13.14;65.93
23953;BME280;12163;49.316;6.092;2023-05-01T04:48:37;99233.25;;;13.19;66.45
23953;BME280;12163;49.316;6.092;2023-05-01T04:51:04;99232.00;;;13.25;65.74
23953;BME280;12163;49.316;6.092;2023-05-01T04:53:31;99232.97;;;13.29;65.96
23953;BME280;12163;49.316;6.092;2023-05-01T04:55:57;99228.22;;;13.35;65.59
23953;BME280;12163;49.316;6.092;2023-05-01T04:58:24;99225.69;;;13.38;65.83
23953;BME280;12163;49.316;6.092;2023-05-01T05:00:51;99234.84;;;13.50;66.32
23953;BME280;12163;49.316;6.092;2023-05-01T05:03:17;99234.03;;;13.80;66.67
23953;BME280;12163;49.316;6.092;2023-05-01T05:05:45;99229.50;;;14.15;66.32
23953;BME280;12163;49.316;6.092;2023-05-01T05:08:14;99225.47;;;14.43;64.99
23953;BME280;12163;49.316;6.092;2023-05-01T05:10:40;99222.09;;;14.71;65.00
23953;BME280;12163;49.316;6.092;2023-05-01T05:13:07;99226.41;;;14.98;64.30
23953;BME280;12163;49.316;6.092;2023-05-01T05:15:35;99223.81;;;15.18;63.00
23953;BME280;12163;49.316;6.092;2023-05-01T05:18:01;99223.50;;;15.36;62.88
23953;BME280;12163;49.316;6.092;2023-05-01T05:20:28;99219.66;;;15.46;61.46
23953;BME280;12163;49.316;6.092;2023-05-01T05:22:55;99228.88;;;15.53;61.57
23953;BME280;12163;49.316;6.092;2023-05-01T05:25:22;99233.97;;;15.63;61.33
23953;BME280;12163;49.316;6.092;2023-05-01T05:27:49;99229.28;;;15.72;60.69
23953;BME280;12163;49.316;6.092;2023-05-01T05:30:16;99231.00;;;15.85;60.21
23953;BME280;12163;49.316;6.092;2023-05-01T05:32:42;99229.69;;;15.91;60.08
23953;BME280;12163;49.316;6.092;2023-05-01T05:35:10;99236.53;;;15.97;59.62
23953;BME280;12163;49.316;6.092;2023-05-01T05:37:36;99229.34;;;16.01;59.63
23953;BME280;12163;49.316;6.092;2023-05-01T05:40:04;99235.38;;;16.07;59.11
23953;BME280;12163;49.316;6.092;2023-05-01T05:42:30;99237.59;;;16.13;57.92
23953;BME280;12163;49.316;6.092;2023-05-01T05:44:57;99241.25;;;16.17;57.97
23953;BME280;12163;49.316;6.092;2023-05-01T05:47:24;99236.25;;;16.19;57.09
23953;BME280;12163;49.316;6.092;2023-05-01T05:49:51;99231.31;;;16.21;56.62
23953;BME280;12163;49.316;6.092;2023-05-01T05:52:17;99240.59;;;16.20;57.35
23953;BME280;12163;49.316;6.092;2023-05-01T05:54:44;99232.56;;;16.24;57.52
23953;BME280;12163;49.316;6.092;2023-05-01T05:57:10;99231.25;;;16.30;56.91
23953;BME280;12163;49.316;6.092;2023-05-01T05:59:37;99234.59;;;16.35;56.20
23953;BME280;12163;49.316;6.092;2023-05-01T06:02:04;99235.53;;;16.39;56.08
23953;BME280;12163;49.316;6.092;2023-05-01T06:04:30;99233.28;;;16.41;55.50
23953;BME280;12163;49.316;6.092;2023-05-01T06:06:57;99231.69;;;16.40;55.48
23953;BME280;12163;49.316;6.092;2023-05-01T06:09:24;99226.25;;;16.40;56.02
23953;BME280;12163;49.316;6.092;2023-05-01T06:11:51;99229.44;;;16.42;54.66
23953;BME280;12163;49.316;6.092;2023-05-01T06:14:18;99234.69;;;16.47;55.26
23953;BME280;12163;49.316;6.092;2023-05-01T06:16:45;99233.56;;;16.48;54.17
23953;BME280;12163;49.316;6.092;2023-05-01T06:19:11;99230.47;;;16.29;53.90
23953;BME280;12163;49.316;6.092;2023-05-01T06:21:38;99227.50;;;16.14;54.67
23953;BME280;12163;49.316;6.092;2023-05-01T06:24:05;99234.78;;;16.01;54.72
23953;BME280;12163;49.316;6.092;2023-05-01T06:26:31;99235.13;;;15.91;55.08
23953;BME280;12163;49.316;6.092;2023-05-01T06:28:58;99239.66;;;15.87;55.21
23953;BME280;12163;49.316;6.092;2023-05-01T06:31:24;99235.63;;;15.85;55.28
23953;BME280;12163;49.316;6.092;2023-05-01T06:33:52;99236.91;;;15.87;55.15
23953;BME280;12163;49.316;6.092;2023-05-01T06:36:19;99234.19;;;15.87;54.67
23953;BME280;12163;49.316;6.092;2023-05-01T06:38:45;99238.97;;;15.90;55.17
23953;BME280;12163;49.316;6.092;2023-05-01T06:41:15;99234.34;;;15.91;54.85
23953;BME280;12163;49.316;6.092;2023-05-01T06:43:42;99240.72;;;15.95;54.74
23953;BME280;12163;49.316;6.092;2023-05-01T06:46:08;99240.06;;;15.98;54.84
23953;BME280;12163;49.316;6.092;2023-05-01T06:48:35;99237.03;;;15.99;54.69
23953;BME280;12163;49.316;6.092;2023-05-01T06:51:02;99245.69;;;16.01;54.56
23953;BME280;12163;49.316;6.092;2023-05-01T06:53:28;99248.41;;;16.01;54.53
23953;BME280;12163;49.316;6.092;2023-05-01T06:55:55;99241.63;;;16.07;54.71
23953;BME280;12163;49.316;6.092;2023-05-01T06:58:22;99250.72;;;16.11;54.39
23953;BME280;12163;49.316;6.092;2023-05-01T07:00:49;99251.66;;;16.15;54.21
23953;BME280;12163;49.316;6.092;2023-05-01T07:03:16;99242.38;;;16.16;53.89
23953;BME280;12163;49.316;6.092;2023-05-01T07:05:43;99244.78;;;16.18;53.98
23953;BME280;12163;49.316;6.092;2023-05-01T07:08:09;99237.22;;;16.23;53.54
23953;BME280;12163;49.316;6.092;2023-05-01T07:10:36;99242.47;;;16.28;53.14
23953;BME280;12163;49.316;6.092;2023-05-01T07:13:06;99247.25;;;16.31;52.91
23953;BME280;12163;49.316;6.092;2023-05-01T07:15:33;99247.91;;;16.37;52.98
23953;BME280;12163;49.316;6.092;2023-05-01T07:18:00;99242.56;;;16.40;52.39
23953;BME280;12163;49.316;6.092;2023-05-01T07:20:28;99248.31;;;16.47;52.04
23953;BME280;12163;49.316;6.092;2023-05-01T07:22:55;99240.81;;;16.44;51.78
23953;BME280;12163;49.316;6.092;2023-05-01T07:25:22;99244.97;;;16.42;51.73
23953;BME280;12163;49.316;6.092;2023-05-01T07:27:50;99241.66;;;16.36;51.92
23953;BME280;12163;49.316;6.092;2023-05-01T07:30:16;99242.47;;;16.28;52.17
23953;BME280;12163;49.316;6.092;2023-05-01T07:32:43;99244.84;;;16.30;52.12
23953;BME280;12163;49.316;6.092;2023-05-01T07:35:10;99243.41;;;16.32;52.37
23953;BME280;12163;49.316;6.092;2023-05-01T07:37:37;99239.84;;;16.40;52.40
23953;BME280;12163;49.316;6.092;2023-05-01T07:40:04;99250.03;;;16.52;51.58
23953;BME280;12163;49.316;6.092;2023-05-01T07:42:30;99241.69;;;16.57;51.73
23953;BME280;12163;49.316;6.092;2023-05-01T07:44:57;99243.75;;;16.60;51.16
23953;BME280;12163;49.316;6.092;2023-05-01T07:47:24;99244.53;;;16.60;51.12
23953;BME280;12163;49.316;6.092;2023-05-01T07:49:50;99249.81;;;16.65;51.71
23953;BME280;12163;49.316;6.092;2023-05-01T07:52:17;99243.94;;;16.75;51.69
23953;BME280;12163;49.316;6.092;2023-05-01T07:54:48;99239.09;;;16.81;50.93
23953;BME280;12163;49.316;6.092;2023-05-01T07:57:15;99238.56;;;16.87;50.96
23953;BME280;12163;49.316;6.092;2023-05-01T07:59:41;99239.97;;;16.93;50.13
23953;BME280;12163;49.316;6.092;2023-05-01T08:02:08;99234.50;;;16.93;50.13
23953;BME280;12163;49.316;6.092;2023-05-01T08:04:35;99232.09;;;16.92;50.34
23953;BME280;12163;49.316;6.092;2023-05-01T08:07:02;99238.22;;;16.89;50.33
23953;BME280;12163;49.316;6.092;2023-05-01T08:09:28;99232.25;;;16.95;50.59
23953;BME280;12163;49.316;6.092;2023-05-01T08:11:55;99232.03;;;17.00;49.79
23953;BME280;12163;49.316;6.092;2023-05-01T08:14:21;99226.13;;;16.98;49.81
23953;BME280;12163;49.316;6.092;2023-05-01T08:16:48;99232.50;;;17.02;49.26
23953;BME280;12163;49.316;6.092;2023-05-01T08:19:19;99237.34;;;16.96;49.39
23953;BME280;12163;49.316;6.092;2023-05-01T08:21:46;99243.13;;;16.95;49.67
23953;BME280;12163;49.316;6.092;2023-05-01T08:24:13;99242.47;;;16.98;49.52
23953;BME280;12163;49.316;6.092;2023-05-01T08:26:39;99235.94;;;17.11;49.64
23953;BME280;12163;49.316;6.092;2023-05-01T08:29:06;99236.91;;;17.27;49.08
23953;BME280;12163;49.316;6.092;2023-05-01T08:31:33;99239.34;;;17.40;49.01
23953;BME280;12163;49.316;6.092;2023-05-01T08:34:06;99239.72;;;17.51;49.35
23953;BME280;12163;49.316;6.092;2023-05-01T08:36:32;99229.44;;;17.68;48.06
23953;BME280;12163;49.316;6.092;2023-05-01T08:38:59;99226.84;;;17.84;48.16
23953;BME280;12163;49.316;6.092;2023-05-01T08:41:26;99232.75;;;17.98;48.14
23953;BME280;12163;49.316;6.092;2023-05-01T08:43:55;99226.50;;;17.97;47.90
23953;BME280;12163;49.316;6.092;2023-05-01T08:47:16;99234.09;;;17.92;47.20
23953;BME280;12163;49.316;6.092;2023-05-01T08:49:24;99227.84;;;18.03;47.79
23953;BME280;12163;49.316;6.092;2023-05-01T08:51:53;99235.25;;;18.15;47.50
23953;BME280;12163;49.316;6.092;2023-05-01T08:54:22;99232.06;;;18.25;47.67
23953;BME280;12163;49.316;6.092;2023-05-01T08:56:50;99232.31;;;18.32;47.00
23953;BME280;12163;49.316;6.092;2023-05-01T08:59:19;99222.84;;;18.41;46.74
23953;BME280;12163;49.316;6.092;2023-05-01T09:01:47;99218.97;;;18.54;46.80
23953;BME280;12163;49.316;6.092;2023-05-01T09:04:15;99221.34;;;18.68;46.65
23953;BME280;12163;49.316;6.092;2023-05-01T09:06:43;99219.88;;;18.85;46.27
23953;BME280;12163;49.316;6.092;2023-05-01T09:09:10;99215.03;;;19.06;45.61
23953;BME280;12163;49.316;6.092;2023-05-01T09:11:37;99215.91;;;19.22;46.15
23953;BME280;12163;49.316;6.092;2023-05-01T09:14:04;99213.47;;;19.33;45.25
23953;BME280;12163;49.316;6.092;2023-05-01T09:16:31;99219.03;;;19.36;44.97
23953;BME280;12163;49.316;6.092;2023-05-01T09:18:58;99209.53;;;19.46;45.66
23953;BME280;12163;49.316;6.092;2023-05-01T09:21:26;99208.97;;;19.40;44.48
23953;BME280;12163;49.316;6.092;2023-05-01T09:23:54;99222.66;;;19.40;44.96
23953;BME280;12163;49.316;6.092;2023-05-01T09:26:21;99219.31;;;19.47;45.23
23953;BME280;12163;49.316;6.092;2023-05-01T09:28:48;99222.78;;;19.59;44.85
23953;BME280;12163;49.316;6.092;2023-05-01T09:31:27;99216.69;;;19.66;44.18
23953;BME280;12163;49.316;6.092;2023-05-01T09:34:02;99219.44;;;19.66;44.31
23953;BME280;12163;49.316;6.092;2023-05-01T09:36:31;99222.78;;;19.75;43.99
23953;BME280;12163;49.316;6.092;2023-05-01T09:39:02;99214.66;;;19.78;43.60
23953;BME280;12163;49.316;6.092;2023-05-01T09:41:29;99224.72;;;19.74;43.37
23953;BME280;12163;49.316;6.092;2023-05-01T09:43:59;99206.09;;;19.64;42.76
23953;BME280;12163;49.316;6.092;2023-05-01T09:46:27;99214.84;;;19.54;42.87
23953;BME280;12163;49.316;6.092;2023-05-01T09:49:00;99207.66;;;19.50;43.40
23953;BME280;12163;49.316;6.092;2023-05-01T09:51:28;99216.22;;;19.48;43.88
23953;BME280;12163;49.316;6.092;2023-05-01T09:56:24;99218.19;;;19.48;44.05
23953;BME280;12163;49.316;6.092;2023-05-01T09:58:52;99213.31;;;19.41;44.21
23953;BME280;12163;49.316;6.092;2023-05-01T10:01:38;99209.47;;;19.30;44.69
23953;BME280;12163;49.316;6.092;2023-05-01T10:04:06;99210.28;;;19.31;45.71
23953;BME280;12163;49.316;6.092;2023-05-01T10:06:32;99206.94;;;19.37;46.53
23953;BME280;12163;49.316;6.092;2023-05-01T10:08:59;99212.16;;;19.42;45.37
23953;BME280;12163;49.316;6.092;2023-05-01T10:11:26;99210.75;;;19.48;44.23
23953;BME280;12163;49.316;6.092;2023-05-01T10:16:35;99207.94;;;19.60;43.83
23953;BME280;12163;49.316;6.092;2023-05-01T10:19:03;99214.91;;;19.73;44.26
23953;BME280;12163;49.316;6.092;2023-05-01T10:21:31;99208.75;;;19.76;43.54
23953;BME280;12163;49.316;6.092;2023-05-01T10:24:00;99206.19;;;19.68;43.92
23953;BME280;12163;49.316;6.092;2023-05-01T10:26:29;99205.75;;;19.66;43.55
23953;BME280;12163;49.316;6.092;2023-05-01T10:28:55;99208.66;;;19.57;44.41
23953;BME280;12163;49.316;6.092;2023-05-01T10:31:24;99220.38;;;19.58;44.08
23953;BME280;12163;49.316;6.092;2023-05-01T10:33:55;99203.97;;;19.58;45.00
23953;BME280;12163;49.316;6.092;2023-05-01T10:36:30;99206.09;;;19.64;43.92
23953;BME280;12163;49.316;6.092;2023-05-01T10:38:59;99199.72;;;19.76;44.29
23953;BME280;12163;49.316;6.092;2023-05-01T10:44:24;99198.16;;;20.40;42.43
23953;BME280;12163;49.316;6.092;2023-05-01T10:46:52;99192.72;;;20.59;41.21
23953;BME280;12163;49.316;6.092;2023-05-01T10:49:19;99205.16;;;20.72;40.30
23953;BME280;12163;49.316;6.092;2023-05-01T10:54:24;99201.66;;;20.56;41.92
23953;BME280;12163;49.316;6.092;2023-05-01T10:56:56;99203.66;;;20.40;41.79
23953;BME280;12163;49.316;6.092;2023-05-01T11:02:25;99197.91;;;20.45;41.06
23953;BME280;12163;49.316;6.092;2023-05-01T11:04:52;99192.78;;;20.44;41.13
23953;BME280;12163;49.316;6.092;2023-05-01T11:07:22;99194.13;;;20.34;39.59
23953;BME280;12163;49.316;6.092;2023-05-01T11:09:53;99195.84;;;20.23;39.81
23953;BME280;12163;49.316;6.092;2023-05-01T11:15:06;99190.63;;;19.87;40.77
23953;BME280;12163;49.316;6.092;2023-05-01T11:20:08;99194.34;;;19.79;40.89
23953;BME280;12163;49.316;6.092;2023-05-01T11:22:36;99201.59;;;19.87;40.57
23953;BME280;12163;49.316;6.092;2023-05-01T11:25:16;99180.06;;;20.01;39.80
23953;BME280;12163;49.316;6.092;2023-05-01T11:27:55;99183.06;;;20.31;38.96
23953;BME280;12163;49.316;6.092;2023-05-01T11:30:23;99182.00;;;20.35;38.89
23953;BME280;12163;49.316;6.092;2023-05-01T11:32:50;99176.53;;;20.35;38.91
23953;BME280;12163;49.316;6.092;2023-05-01T11:35:24;99167.88;;;20.33;38.95
23953;BME280;12163;49.316;6.092;2023-05-01T11:37:53;99179.34;;;20.39;39.25
23953;BME280;12163;49.316;6.092;2023-05-01T11:40:28;99185.63;;;20.39;40.14
23953;BME280;12163;49.316;6.092;2023-05-01T11:43:07;99182.44;;;20.37;41.44
23953;BME280;12163;49.316;6.092;2023-05-01T11:45:35;99181.13;;;20.31;41.47
23953;BME280;12163;49.316;6.092;2023-05-01T11:48:03;99181.97;;;20.16;40.65
23953;BME280;12163;49.316;6.092;2023-05-01T11:50:36;99186.03;;;19.91;41.09
23953;BME280;12163;49.316;6.092;2023-05-01T11:53:09;99192.06;;;19.81;40.98
23953;BME280;12163;49.316;6.092;2023-05-01T11:55:37;99190.47;;;19.80;41.55
23953;BME280;12163;49.316;6.092;2023-05-01T11:58:05;99178.63;;;19.76;42.13
23953;BME280;12163;49.316;6.092;2023-05-01T12:03:02;99181.25;;;19.88;42.12
23953;BME280;12163;49.316;6.092;2023-05-01T12:05:30;99180.56;;;19.91;42.27
23953;BME280;12163;49.316;6.092;2023-05-01T12:08:10;99187.28;;;20.09;41.16
23953;BME280;12163;49.316;6.092;2023-05-01T12:10:39;99179.88;;;20.10;41.50
23953;BME280;12163;49.316;6.092;2023-05-01T12:13:09;99175.66;;;20.31;40.57
23953;BME280;12163;49.316;6.092;2023-05-01T12:15:38;99179.44;;;20.42;40.16
23953;BME280;12163;49.316;6.092;2023-05-01T12:18:06;99177.28;;;20.51;39.67
23953;BME280;12163;49.316;6.092;2023-05-01T12:20:47;99175.97;;;20.64;40.03
23953;BME280;12163;49.316;6.092;2023-05-01T12:23:15;99180.19;;;20.77;39.80
23953;BME280;12163;49.316;6.092;2023-05-01T12:25:43;99170.72;;;20.74;39.63
23953;BME280;12163;49.316;6.092;2023-05-01T12:30:39;99173.28;;;20.48;41.95
23953;BME280;12163;49.316;6.092;2023-05-01T12:33:11;99188.41;;;20.24;42.85
23953;BME280;12163;49.316;6.092;2023-05-01T12:35:39;99183.22;;;20.03;43.73
23953;BME280;12163;49.316;6.092;2023-05-01T12:38:16;99181.25;;;19.88;44.42
23953;BME280;12163;49.316;6.092;2023-05-01T12:40:56;99182.69;;;19.82;44.98
23953;BME280;12163;49.316;6.092;2023-05-01T12:43:34;99196.81;;;19.84;43.92
23953;BME280;12163;49.316;6.092;2023-05-01T12:46:02;99181.63;;;19.71;44.04
23953;BME280;12163;49.316;6.092;2023-05-01T12:48:32;99180.47;;;19.72;44.37
23953;BME280;12163;49.316;6.092;2023-05-01T12:50:59;99192.56;;;19.71;44.84
23953;BME280;12163;49.316;6.092;2023-05-01T12:53:27;99188.16;;;19.82;44.80
23953;BME280;12163;49.316;6.092;2023-05-01T12:55:56;99179.50;;;20.11;44.57
23953;BME280;12163;49.316;6.092;2023-05-01T12:58:33;99185.47;;;20.32;43.57
23953;BME280;12163;49.316;6.092;2023-05-01T13:01:00;99184.75;;;20.35;42.03
23953;BME280;12163;49.316;6.092;2023-05-01T13:03:28;99193.25;;;20.30;42.03
23953;BME280;12163;49.316;6.092;2023-05-01T13:06:00;99193.81;;;20.20;42.20
23953;BME280;12163;49.316;6.092;2023-05-01T13:10:55;99191.06;;;20.05;43.05
23953;BME280;12163;49.316;6.092;2023-05-01T13:13:26;99180.22;;;20.08;43.14
23953;BME280;12163;49.316;6.092;2023-05-01T13:16:01;99197.78;;;20.23;42.66
23953;BME280;12163;49.316;6.092;2023-05-01T13:18:30;99187.06;;;20.33;42.06
23953;BME280;12163;49.316;6.092;2023-05-01T13:21:07;99204.59;;;20.48;42.23
23953;BME280;12163;49.316;6.092;2023-05-01T13:23:36;99205.56;;;20.55;40.76
23953;BME280;12163;49.316;6.092;2023-05-01T13:26:05;99198.34;;;20.47;40.76
23953;BME280;12163;49.316;6.092;2023-05-01T13:28:34;99190.63;;;20.52;40.63
23953;BME280;12163;49.316;6.092;2023-05-01T13:31:01;99195.84;;;20.76;38.81
23953;BME280;12163;49.316;6.092;2023-05-01T13:33:29;99196.34;;;20.82;38.92
23953;BME280;12163;49.316;6.092;2023-05-01T13:35:56;99189.09;;;20.89;39.08
23953;BME280;12163;49.316;6.092;2023-05-01T13:38:23;99188.22;;;20.85;38.21
23953;BME280;12163;49.316;6.092;2023-05-01T13:40:50;99189.72;;;21.02;37.32
23953;BME280;12163;49.316;6.092;2023-05-01T13:43:17;99187.50;;;21.07;37.15
23953;BME280;12163;49.316;6.092;2023-05-01T13:45:43;99187.72;;;20.99;37.94